sensor_id;sensor_type;location;lat;lon;timestamp;P1;durP1;ratioP1;P2;durP2;ratioP2
9745;SDS011;4912;50.836;12.958;2022-12-10T00:00:28;29.27;;;18.40;;
9745;SDS011;4912;50.836;12.958;2022-12-10T00:02:59;32.40;;;18.53;;
9745;SDS011;4912;50.836;12.958;2022-12-10T00:05:29;29.93;;;18.17;;
9745;SDS011;4912;50.836;12.958;2022-12-10T00:08:05;32.50;;;18.75;;
9745;SDS011;4912;50.836;12.958;2022-12-10T00:10:38;35.78;;;19.73;;
9745;SDS011;4912;50.836;12.958;2022-12-10T00:13:09;35.30;;;20.02;;
9745;SDS011;4912;50.836;12.958;2022-12-10T00:15:39;36.87;;;20.23;;
9745;SDS011;4912;50.836;12.958;2022-12-10T00:18:09;38.77;;;21.03;;
9745;SDS011;4912;50.836;12.958;2022-12-10T00:20:40;37.17;;;20.57;;
9745;SDS011;4912;50.836;12.958;2022-12-10T00:23:13;37.50;;;20.77;;
9745;SDS011;4912;50.836;12.958;2022-12-10T00:25:48;43.40;;;22.02;;
9745;SDS011;4912;50.836;12.958;2022-12-10T00:28:19;40.47;;;21.80;;
9745;SDS011;4912;50.836;12.958;2022-12-10T00:30:49;41.23;;;20.77;;
9745;SDS011;4912;50.836;12.958;2022-12-10T00:33:20;44.90;;;22.97;;
9745;SDS011;4912;50.836;12.958;2022-12-10T00:35:50;42.72;;;21.48;;
9745;SDS011;4912;50.836;12.958;2022-12-10T00:38:23;43.38;;;22.75;;
9745;SDS011;4912;50.836;12.958;2022-12-10T00:40:53;41.58;;;21.77;;
9745;SDS011;4912;50.836;12.958;2022-12-10T00:43:24;44.43;;;21.07;;
9745;SDS011;4912;50.836;12.958;2022-12-10T00:45:54;47.63;;;23.97;;
9745;SDS011;4912;50.836;12.958;2022-12-10T00:48:25;45.90;;;23.42;;
9745;SDS011;4912;50.836;12.958;2022-12-10T00:50:56;46.10;;;23.45;;
9745;SDS011;4912;50.836;12.958;2022-12-10T00:53:32;46.28;;;21.85;;
9745;SDS011;4912;50.836;12.958;2022-12-10T00:56:05;45.17;;;22.60;;
9745;SDS011;4912;50.836;12.958;2022-12-10T00:58:37;48.67;;;24.03;;
9745;SDS011;4912;50.836;12.958;2022-12-10T01:01:09;49.30;;;24.05;;
9745;SDS011;4912;50.836;12.958;2022-12-10T01:03:43;48.35;;;23.00;;
9745;SDS011;4912;50.836;12.958;2022-12-10T01:06:15;53.80;;;23.73;;
9745;SDS011;4912;50.836;12.958;2022-12-10T01:08:51;55.97;;;24.47;;
9745;SDS011;4912;50.836;12.958;2022-12-10T01:11:25;49.40;;;23.07;;
9745;SDS011;4912;50.836;12.958;2022-12-10T01:13:58;49.57;;;21.67;;
9745;SDS011;4912;50.836;12.958;2022-12-10T01:19:00;53.77;;;21.83;;
9745;SDS011;4912;50.836;12.958;2022-12-10T01:21:33;49.53;;;21.47;;
9745;SDS011;4912;50.836;12.958;2022-12-10T01:24:07;46.88;;;20.50;;
9745;SDS011;4912;50.836;12.958;2022-12-10T01:26:38;45.60;;;21.23;;
9745;SDS011;4912;50.836;12.958;2022-12-10T01:29:09;53.87;;;21.70;;
9745;SDS011;4912;50.836;12.958;2022-12-10T01:31:41;47.73;;;20.70;;
9745;SDS011;4912;50.836;12.958;2022-12-10T01:34:14;57.90;;;23.93;;
9745;SDS011;4912;50.836;12.958;2022-12-10T01:36:47;53.85;;;24.35;;
9745;SDS011;4912;50.836;12.958;2022-12-10T01:39:22;51.90;;;22.07;;
9745;SDS011;4912;50.836;12.958;2022-12-10T01:41:58;51.90;;;22.83;;
9745;SDS011;4912;50.836;12.958;2022-12-10T01:47:30;54.72;;;24.48;;
9745;SDS011;4912;50.836;12.958;2022-12-10T01:50:01;52.85;;;23.13;;
9745;SDS011;4912;50.836;12.958;2022-12-10T01:52:36;56.33;;;23.23;;
9745;SDS011;4912;50.836;12.958;2022-12-10T01:58:12;52.97;;;22.67;;
9745;SDS011;4912;50.836;12.958;2022-12-10T02:00:51;57.77;;;21.90;;
9745;SDS011;4912;50.836;12.958;2022-12-10T02:03:35;53.93;;;22.60;;
9745;SDS011;4912;50.836;12.958;2022-12-10T02:09:19;56.33;;;22.97;;
9745;SDS011;4912;50.836;12.958;2022-12-10T02:12:01;51.17;;;21.33;;
9745;SDS011;4912;50.836;12.958;2022-12-10T02:14:43;58.75;;;24.83;;
9745;SDS011;4912;50.836;12.958;2022-12-10T02:17:23;55.47;;;22.60;;
9745;SDS011;4912;50.836;12.958;2022-12-10T02:20:00;54.23;;;22.30;;
9745;SDS011;4912;50.836;12.958;2022-12-10T02:22:40;58.33;;;23.88;;
9745;SDS011;4912;50.836;12.958;2022-12-10T02:25:18;58.63;;;22.53;;
9745;SDS011;4912;50.836;12.958;2022-12-10T02:27:59;58.00;;;24.13;;
9745;SDS011;4912;50.836;12.958;2022-12-10T02:30:39;51.97;;;22.83;;
9745;SDS011;4912;50.836;12.958;2022-12-10T02:33:11;55.50;;;22.97;;
9745;SDS011;4912;50.836;12.958;2022-12-10T02:35:43;56.00;;;22.67;;
9745;SDS011;4912;50.836;12.958;2022-12-10T02:38:17;56.83;;;23.53;;
9745;SDS011;4912;50.836;12.958;2022-12-10T02:40:58;58.78;;;23.00;;
9745;SDS011;4912;50.836;12.958;2022-12-10T02:43:33;54.87;;;22.70;;
9745;SDS011;4912;50.836;12.958;2022-12-10T02:46:07;61.53;;;23.50;;
9745;SDS011;4912;50.836;12.958;2022-12-10T02:48:38;62.20;;;24.50;;
9745;SDS011;4912;50.836;12.958;2022-12-10T02:51:10;56.80;;;23.20;;
9745;SDS011;4912;50.836;12.958;2022-12-10T02:53:41;63.73;;;23.97;;
9745;SDS011;4912;50.836;12.958;2022-12-10T02:56:13;64.47;;;23.80;;
9745;SDS011;4912;50.836;12.958;2022-12-10T02:58:55;61.07;;;24.10;;
9745;SDS011;4912;50.836;12.958;2022-12-10T03:01:42;58.85;;;23.17;;
9745;SDS011;4912;50.836;12.958;2022-12-10T03:04:25;57.97;;;22.50;;
9745;SDS011;4912;50.836;12.958;2022-12-10T03:07:05;56.10;;;22.13;;
9745;SDS011;4912;50.836;12.958;2022-12-10T03:09:43;59.07;;;23.30;;
9745;SDS011;4912;50.836;12.958;2022-12-10T03:12:21;66.33;;;23.10;;
9745;SDS011;4912;50.836;12.958;2022-12-10T03:14:59;55.37;;;23.13;;
9745;SDS011;4912;50.836;12.958;2022-12-10T03:17:39;64.07;;;24.00;;
9745;SDS011;4912;50.836;12.958;2022-12-10T03:20:13;63.80;;;25.13;;
9745;SDS011;4912;50.836;12.958;2022-12-10T03:22:45;67.10;;;25.33;;
9745;SDS011;4912;50.836;12.958;2022-12-10T03:25:19;63.00;;;25.00;;
9745;SDS011;4912;50.836;12.958;2022-12-10T03:27:54;61.63;;;24.03;;
9745;SDS011;4912;50.836;12.958;2022-12-10T03:30:28;61.33;;;24.07;;
9745;SDS011;4912;50.836;12.958;2022-12-10T03:33:04;68.67;;;25.07;;
9745;SDS011;4912;50.836;12.958;2022-12-10T03:35:35;74.70;;;25.40;;
9745;SDS011;4912;50.836;12.958;2022-12-10T03:38:05;78.75;;;26.75;;
9745;SDS011;4912;50.836;12.958;2022-12-10T03:43:07;64.20;;;24.13;;
9745;SDS011;4912;50.836;12.958;2022-12-10T03:45:37;68.88;;;24.42;;
9745;SDS011;4912;50.836;12.958;2022-12-10T03:48:11;66.83;;;24.47;;
9745;SDS011;4912;50.836;12.958;2022-12-10T03:50:42;65.13;;;24.53;;
9745;SDS011;4912;50.836;12.958;2022-12-10T03:53:12;58.30;;;22.27;;
9745;SDS011;4912;50.836;12.958;2022-12-10T03:55:43;60.97;;;23.97;;
9745;SDS011;4912;50.836;12.958;2022-12-10T03:58:13;64.78;;;22.92;;
9745;SDS011;4912;50.836;12.958;2022-12-10T04:00:46;62.93;;;23.33;;
9745;SDS011;4912;50.836;12.958;2022-12-10T04:03:19;58.67;;;23.13;;
9745;SDS011;4912;50.836;12.958;2022-12-10T04:05:49;60.70;;;23.23;;
9745;SDS011;4912;50.836;12.958;2022-12-10T04:08:19;63.40;;;24.03;;
9745;SDS011;4912;50.836;12.958;2022-12-10T04:10:50;60.70;;;23.83;;
9745;SDS011;4912;50.836;12.958;2022-12-10T04:13:20;60.37;;;23.97;;
9745;SDS011;4912;50.836;12.958;2022-12-10T04:16:03;59.83;;;22.90;;
9745;SDS011;4912;50.836;12.958;2022-12-10T04:18:49;61.23;;;23.13;;
9745;SDS011;4912;50.836;12.958;2022-12-10T04:21:26;60.63;;;23.63;;
9745;SDS011;4912;50.836;12.958;2022-12-10T04:24:11;61.10;;;23.10;;
9745;SDS011;4912;50.836;12.958;2022-12-10T04:26:55;64.20;;;22.53;;
9745;SDS011;4912;50.836;12.958;2022-12-10T04:29:29;61.77;;;23.53;;
9745;SDS011;4912;50.836;12.958;2022-12-10T04:32:00;61.40;;;23.37;;
9745;SDS011;4912;50.836;12.958;2022-12-10T04:34:33;60.43;;;21.73;;
9745;SDS011;4912;50.836;12.958;2022-12-10T04:37:04;61.90;;;23.63;;
9745;SDS011;4912;50.836;12.958;2022-12-10T04:39:37;58.67;;;23.20;;
9745;SDS011;4912;50.836;12.958;2022-12-10T04:42:08;62.72;;;24.50;;
9745;SDS011;4912;50.836;12.958;2022-12-10T04:44:39;58.53;;;23.23;;
9745;SDS011;4912;50.836;12.958;2022-12-10T04:47:10;64.47;;;23.67;;
9745;SDS011;4912;50.836;12.958;2022-12-10T04:49:44;67.20;;;24.50;;
9745;SDS011;4912;50.836;12.958;2022-12-10T04:52:15;66.90;;;24.43;;
9745;SDS011;4912;50.836;12.958;2022-12-10T04:54:46;58.20;;;22.63;;
9745;SDS011;4912;50.836;12.958;2022-12-10T04:57:16;60.83;;;23.73;;
9745;SDS011;4912;50.836;12.958;2022-12-10T04:59:46;64.47;;;25.23;;
9745;SDS011;4912;50.836;12.958;2022-12-10T05:02:17;62.05;;;23.58;;
9745;SDS011;4912;50.836;12.958;2022-12-10T05:04:50;63.00;;;22.57;;
9745;SDS011;4912;50.836;12.958;2022-12-10T05:07:21;57.27;;;21.33;;
9745;SDS011;4912;50.836;12.958;2022-12-10T05:09:51;58.37;;;22.00;;
9745;SDS011;4912;50.836;12.958;2022-12-10T05:12:22;57.25;;;22.42;;
9745;SDS011;4912;50.836;12.958;2022-12-10T05:14:52;54.87;;;21.20;;
9745;SDS011;4912;50.836;12.958;2022-12-10T05:17:22;60.70;;;22.97;;
9745;SDS011;4912;50.836;12.958;2022-12-10T05:19:56;50.20;;;21.65;;
9745;SDS011;4912;50.836;12.958;2022-12-10T05:22:26;55.77;;;21.57;;
9745;SDS011;4912;50.836;12.958;2022-12-10T05:25:09;57.80;;;21.83;;
9745;SDS011;4912;50.836;12.958;2022-12-10T05:27:39;56.23;;;21.73;;
9745;SDS011;4912;50.836;12.958;2022-12-10T05:30:10;57.00;;;21.63;;
9745;SDS011;4912;50.836;12.958;2022-12-10T05:32:41;56.65;;;22.02;;
9745;SDS011;4912;50.836;12.958;2022-12-10T05:35:14;54.83;;;20.67;;
9745;SDS011;4912;50.836;12.958;2022-12-10T05:37:44;56.93;;;21.30;;
9745;SDS011;4912;50.836;12.958;2022-12-10T05:40:14;46.27;;;20.27;;
9745;SDS011;4912;50.836;12.958;2022-12-10T05:42:45;61.78;;;22.38;;
9745;SDS011;4912;50.836;12.958;2022-12-10T05:45:15;50.90;;;20.40;;
9745;SDS011;4912;50.836;12.958;2022-12-10T05:47:46;51.77;;;20.40;;
9745;SDS011;4912;50.836;12.958;2022-12-10T05:50:19;54.00;;;20.93;;
9745;SDS011;4912;50.836;12.958;2022-12-10T05:52:49;52.60;;;21.13;;
9745;SDS011;4912;50.836;12.958;2022-12-10T05:55:20;50.65;;;19.27;;
9745;SDS011;4912;50.836;12.958;2022-12-10T05:57:51;47.25;;;19.85;;
9745;SDS011;4912;50.836;12.958;2022-12-10T06:00:21;50.63;;;20.50;;
9745;SDS011;4912;50.836;12.958;2022-12-10T06:02:52;54.53;;;20.57;;
9745;SDS011;4912;50.836;12.958;2022-12-10T06:05:25;57.70;;;21.92;;
9745;SDS011;4912;50.836;12.958;2022-12-10T06:07:55;58.10;;;21.27;;
9745;SDS011;4912;50.836;12.958;2022-12-10T06:10:26;52.77;;;21.53;;
9745;SDS011;4912;50.836;12.958;2022-12-10T06:12:56;53.17;;;21.10;;
9745;SDS011;4912;50.836;12.958;2022-12-10T06:15:26;58.90;;;21.30;;
9745;SDS011;4912;50.836;12.958;2022-12-10T06:17:56;48.60;;;19.77;;
9745;SDS011;4912;50.836;12.958;2022-12-10T06:20:30;57.15;;;21.27;;
9745;SDS011;4912;50.836;12.958;2022-12-10T06:23:00;54.20;;;21.27;;
9745;SDS011;4912;50.836;12.958;2022-12-10T06:25:30;50.60;;;19.77;;
9745;SDS011;4912;50.836;12.958;2022-12-10T06:28:01;55.88;;;20.13;;
9745;SDS011;4912;50.836;12.958;2022-12-10T06:30:32;54.08;;;21.23;;
9745;SDS011;4912;50.836;12.958;2022-12-10T06:33:02;50.90;;;20.83;;
9745;SDS011;4912;50.836;12.958;2022-12-10T06:35:36;52.07;;;20.23;;
9745;SDS011;4912;50.836;12.958;2022-12-10T06:38:07;50.30;;;21.17;;
9745;SDS011;4912;50.836;12.958;2022-12-10T06:40:38;54.07;;;21.30;;
9745;SDS011;4912;50.836;12.958;2022-12-10T06:43:09;56.80;;;20.83;;
9745;SDS011;4912;50.836;12.958;2022-12-10T06:45:39;55.67;;;19.70;;
9745;SDS011;4912;50.836;12.958;2022-12-10T06:50:43;56.17;;;20.30;;
9745;SDS011;4912;50.836;12.958;2022-12-10T06:53:13;51.93;;;21.03;;
9745;SDS011;4912;50.836;12.958;2022-12-10T06:55:44;59.33;;;22.67;;
9745;SDS011;4912;50.836;12.958;2022-12-10T06:58:14;57.43;;;21.90;;
9745;SDS011;4912;50.836;12.958;2022-12-10T07:00:44;55.30;;;22.03;;
9745;SDS011;4912;50.836;12.958;2022-12-10T07:03:15;54.53;;;20.40;;
9745;SDS011;4912;50.836;12.958;2022-12-10T07:05:48;57.87;;;22.30;;
9745;SDS011;4912;50.836;12.958;2022-12-10T07:08:18;55.90;;;22.23;;
9745;SDS011;4912;50.836;12.958;2022-12-10T07:10:50;57.20;;;20.93;;
9745;SDS011;4912;50.836;12.958;2022-12-10T07:13:20;62.90;;;20.97;;
9745;SDS011;4912;50.836;12.958;2022-12-10T07:15:56;49.90;;;21.07;;
9745;SDS011;4912;50.836;12.958;2022-12-10T07:18:27;53.67;;;21.15;;
9745;SDS011;4912;50.836;12.958;2022-12-10T07:20:59;54.30;;;21.60;;
9745;SDS011;4912;50.836;12.958;2022-12-10T07:23:30;58.37;;;21.17;;
9745;SDS011;4912;50.836;12.958;2022-12-10T07:26:01;56.83;;;21.60;;
9745;SDS011;4912;50.836;12.958;2022-12-10T07:28:31;56.90;;;19.27;;
9745;SDS011;4912;50.836;12.958;2022-12-10T07:31:18;54.13;;;20.73;;
9745;SDS011;4912;50.836;12.958;2022-12-10T07:33:50;57.00;;;21.60;;
9745;SDS011;4912;50.836;12.958;2022-12-10T07:36:24;51.90;;;19.03;;
9745;SDS011;4912;50.836;12.958;2022-12-10T07:38:56;48.80;;;20.07;;
9745;SDS011;4912;50.836;12.958;2022-12-10T07:41:26;56.03;;;21.43;;
9745;SDS011;4912;50.836;12.958;2022-12-10T07:43:57;48.72;;;18.55;;
9745;SDS011;4912;50.836;12.958;2022-12-10T07:46:28;51.27;;;19.63;;
9745;SDS011;4912;50.836;12.958;2022-12-10T07:49:02;40.03;;;17.80;;
9745;SDS011;4912;50.836;12.958;2022-12-10T07:51:35;40.47;;;17.23;;
9745;SDS011;4912;50.836;12.958;2022-12-10T07:54:05;41.93;;;16.70;;
9745;SDS011;4912;50.836;12.958;2022-12-10T07:56:36;36.73;;;16.87;;
9745;SDS011;4912;50.836;12.958;2022-12-10T07:59:06;40.57;;;18.33;;
9745;SDS011;4912;50.836;12.958;2022-12-10T08:01:37;39.55;;;17.25;;
9745;SDS011;4912;50.836;12.958;2022-12-10T08:04:07;40.93;;;16.83;;
9745;SDS011;4912;50.836;12.958;2022-12-10T08:06:40;43.90;;;18.87;;
9745;SDS011;4912;50.836;12.958;2022-12-10T08:09:10;51.20;;;18.57;;
9745;SDS011;4912;50.836;12.958;2022-12-10T08:11:41;43.40;;;18.58;;
9745;SDS011;4912;50.836;12.958;2022-12-10T08:14:11;43.40;;;17.63;;
9745;SDS011;4912;50.836;12.958;2022-12-10T08:16:41;42.07;;;18.13;;
9745;SDS011;4912;50.836;12.958;2022-12-10T08:19:12;43.43;;;17.57;;
9745;SDS011;4912;50.836;12.958;2022-12-10T08:21:52;41.87;;;17.63;;
9745;SDS011;4912;50.836;12.958;2022-12-10T08:24:22;55.27;;;24.40;;
9745;SDS011;4912;50.836;12.958;2022-12-10T08:26:52;42.70;;;18.97;;
9745;SDS011;4912;50.836;12.958;2022-12-10T08:29:23;45.40;;;19.13;;
9745;SDS011;4912;50.836;12.958;2022-12-10T08:34:24;40.80;;;17.77;;
9745;SDS011;4912;50.836;12.958;2022-12-10T08:36:57;48.07;;;18.80;;
9745;SDS011;4912;50.836;12.958;2022-12-10T08:39:28;46.83;;;19.07;;
9745;SDS011;4912;50.836;12.958;2022-12-10T08:42:00;40.70;;;17.80;;
9745;SDS011;4912;50.836;12.958;2022-12-10T08:44:30;42.50;;;18.47;;
9745;SDS011;4912;50.836;12.958;2022-12-10T08:47:00;43.60;;;19.23;;
9745;SDS011;4912;50.836;12.958;2022-12-10T08:49:30;39.23;;;18.00;;
9745;SDS011;4912;50.836;12.958;2022-12-10T08:52:03;44.17;;;19.70;;
9745;SDS011;4912;50.836;12.958;2022-12-10T08:54:34;48.00;;;20.77;;
9745;SDS011;4912;50.836;12.958;2022-12-10T08:57:05;43.97;;;18.30;;
9745;SDS011;4912;50.836;12.958;2022-12-10T08:59:35;43.23;;;18.37;;
9745;SDS011;4912;50.836;12.958;2022-12-10T09:02:05;45.60;;;19.37;;
9745;SDS011;4912;50.836;12.958;2022-12-10T09:04:38;44.10;;;19.40;;
9745;SDS011;4912;50.836;12.958;2022-12-10T09:07:12;51.87;;;21.20;;
9745;SDS011;4912;50.836;12.958;2022-12-10T09:09:42;43.93;;;18.20;;
9745;SDS011;4912;50.836;12.958;2022-12-10T09:12:12;43.20;;;18.13;;
9745;SDS011;4912;50.836;12.958;2022-12-10T09:14:43;42.23;;;17.73;;
9745;SDS011;4912;50.836;12.958;2022-12-10T09:17:13;41.00;;;17.60;;
9745;SDS011;4912;50.836;12.958;2022-12-10T09:19:43;38.83;;;18.47;;
9745;SDS011;4912;50.836;12.958;2022-12-10T09:22:16;37.47;;;17.67;;
9745;SDS011;4912;50.836;12.958;2022-12-10T09:24:47;38.87;;;17.70;;
9745;SDS011;4912;50.836;12.958;2022-12-10T09:27:17;39.37;;;17.30;;
9745;SDS011;4912;50.836;12.958;2022-12-10T09:29:48;34.97;;;16.70;;
9745;SDS011;4912;50.836;12.958;2022-12-10T09:32:18;37.03;;;17.23;;
9745;SDS011;4912;50.836;12.958;2022-12-10T09:34:50;34.95;;;17.10;;
9745;SDS011;4912;50.836;12.958;2022-12-10T09:37:23;37.97;;;17.20;;
9745;SDS011;4912;50.836;12.958;2022-12-10T09:39:53;34.75;;;17.40;;
9745;SDS011;4912;50.836;12.958;2022-12-10T09:42:28;39.97;;;17.03;;
9745;SDS011;4912;50.836;12.958;2022-12-10T09:45:09;34.53;;;16.92;;
9745;SDS011;4912;50.836;12.958;2022-12-10T09:47:50;31.08;;;15.68;;
9745;SDS011;4912;50.836;12.958;2022-12-10T09:53:07;30.88;;;15.23;;
9745;SDS011;4912;50.836;12.958;2022-12-10T09:55:43;28.70;;;14.73;;
9745;SDS011;4912;50.836;12.958;2022-12-10T09:58:18;31.98;;;15.43;;
9745;SDS011;4912;50.836;12.958;2022-12-10T10:00:57;30.48;;;15.20;;
9745;SDS011;4912;50.836;12.958;2022-12-10T10:03:32;31.17;;;16.00;;
9745;SDS011;4912;50.836;12.958;2022-12-10T10:06:08;32.13;;;15.60;;
9745;SDS011;4912;50.836;12.958;2022-12-10T10:08:46;30.23;;;15.57;;
9745;SDS011;4912;50.836;12.958;2022-12-10T10:11:21;30.73;;;15.05;;
9745;SDS011;4912;50.836;12.958;2022-12-10T10:13:55;33.08;;;16.13;;
9745;SDS011;4912;50.836;12.958;2022-12-10T10:16:30;30.60;;;15.93;;
9745;SDS011;4912;50.836;12.958;2022-12-10T10:19:05;32.47;;;15.85;;
9745;SDS011;4912;50.836;12.958;2022-12-10T10:21:44;35.73;;;17.20;;
9745;SDS011;4912;50.836;12.958;2022-12-10T10:24:19;32.47;;;16.63;;
9745;SDS011;4912;50.836;12.958;2022-12-10T10:26:53;33.70;;;16.90;;
9745;SDS011;4912;50.836;12.958;2022-12-10T10:29:27;39.73;;;19.97;;
9745;SDS011;4912;50.836;12.958;2022-12-10T10:32:10;36.10;;;17.57;;
9745;SDS011;4912;50.836;12.958;2022-12-10T10:34:44;36.20;;;17.03;;
9745;SDS011;4912;50.836;12.958;2022-12-10T10:37:18;34.15;;;17.05;;
9745;SDS011;4912;50.836;12.958;2022-12-10T10:39:54;34.50;;;17.10;;
9745;SDS011;4912;50.836;12.958;2022-12-10T10:42:33;33.30;;;16.73;;
9745;SDS011;4912;50.836;12.958;2022-12-10T10:48:12;33.17;;;16.23;;
9745;SDS011;4912;50.836;12.958;2022-12-10T10:50:45;32.90;;;15.57;;
9745;SDS011;4912;50.836;12.958;2022-12-10T10:53:25;34.40;;;17.10;;
9745;SDS011;4912;50.836;12.958;2022-12-10T10:56:07;33.77;;;16.90;;
9745;SDS011;4912;50.836;12.958;2022-12-10T10:58:50;38.33;;;18.10;;
9745;SDS011;4912;50.836;12.958;2022-12-10T11:01:26;35.00;;;17.70;;
9745;SDS011;4912;50.836;12.958;2022-12-10T11:04:14;39.20;;;18.90;;
9745;SDS011;4912;50.836;12.958;2022-12-10T11:06:48;36.63;;;18.00;;
9745;SDS011;4912;50.836;12.958;2022-12-10T11:09:25;37.37;;;18.53;;
9745;SDS011;4912;50.836;12.958;2022-12-10T11:12:02;39.03;;;18.10;;
9745;SDS011;4912;50.836;12.958;2022-12-10T11:14:38;45.20;;;21.67;;
9745;SDS011;4912;50.836;12.958;2022-12-10T11:17:16;45.10;;;21.73;;
9745;SDS011;4912;50.836;12.958;2022-12-10T11:19:59;37.47;;;18.90;;
9745;SDS011;4912;50.836;12.958;2022-12-10T11:22:40;40.43;;;18.17;;
9745;SDS011;4912;50.836;12.958;2022-12-10T11:25:22;35.47;;;17.10;;
9745;SDS011;4912;50.836;12.958;2022-12-10T11:28:16;35.43;;;17.30;;
9745;SDS011;4912;50.836;12.958;2022-12-10T11:31:19;35.83;;;17.17;;
9745;SDS011;4912;50.836;12.958;2022-12-10T11:34:06;33.17;;;16.23;;
9745;SDS011;4912;50.836;12.958;2022-12-10T11:36:46;35.63;;;17.73;;
9745;SDS011;4912;50.836;12.958;2022-12-10T11:39:35;32.60;;;16.40;;
9745;SDS011;4912;50.836;12.958;2022-12-10T11:42:34;31.47;;;16.03;;
9745;SDS011;4912;50.836;12.958;2022-12-10T11:45:20;27.20;;;14.52;;
9745;SDS011;4912;50.836;12.958;2022-12-10T11:48:00;30.70;;;15.97;;
9745;SDS011;4912;50.836;12.958;2022-12-10T11:50:45;27.83;;;14.70;;
9745;SDS011;4912;50.836;12.958;2022-12-10T11:56:21;25.83;;;13.75;;
9745;SDS011;4912;50.836;12.958;2022-12-10T11:59:04;26.30;;;14.30;;
9745;SDS011;4912;50.836;12.958;2022-12-10T12:04:53;26.83;;;14.30;;
9745;SDS011;4912;50.836;12.958;2022-12-10T12:07:47;26.45;;;13.95;;
9745;SDS011;4912;50.836;12.958;2022-12-10T12:10:43;27.37;;;14.33;;
9745;SDS011;4912;50.836;12.958;2022-12-10T12:13:38;26.17;;;14.20;;
9745;SDS011;4912;50.836;12.958;2022-12-10T12:16:18;25.33;;;13.63;;
9745;SDS011;4912;50.836;12.958;2022-12-10T12:19:01;26.52;;;13.52;;
9745;SDS011;4912;50.836;12.958;2022-12-10T12:21:39;26.40;;;13.33;;
9745;SDS011;4912;50.836;12.958;2022-12-10T12:24:12;29.17;;;14.80;;
9745;SDS011;4912;50.836;12.958;2022-12-10T12:26:49;25.67;;;14.90;;
9745;SDS011;4912;50.836;12.958;2022-12-10T12:29:27;32.47;;;15.70;;
9745;SDS011;4912;50.836;12.958;2022-12-10T12:32:04;28.77;;;16.05;;
9745;SDS011;4912;50.836;12.958;2022-12-10T12:34:47;29.05;;;15.82;;
9745;SDS011;4912;50.836;12.958;2022-12-10T12:37:28;27.90;;;15.52;;
9745;SDS011;4912;50.836;12.958;2022-12-10T12:40:09;30.20;;;15.82;;
9745;SDS011;4912;50.836;12.958;2022-12-10T12:42:45;30.73;;;15.80;;
9745;SDS011;4912;50.836;12.958;2022-12-10T12:45:24;31.03;;;16.67;;
9745;SDS011;4912;50.836;12.958;2022-12-10T12:48:14;28.52;;;15.77;;
9745;SDS011;4912;50.836;12.958;2022-12-10T12:50:57;29.50;;;16.60;;
9745;SDS011;4912;50.836;12.958;2022-12-10T12:53:33;31.80;;;16.57;;
9745;SDS011;4912;50.836;12.958;2022-12-10T12:56:05;42.75;;;22.65;;
9745;SDS011;4912;50.836;12.958;2022-12-10T12:58:43;34.03;;;18.08;;
9745;SDS011;4912;50.836;12.958;2022-12-10T13:01:26;33.23;;;17.03;;
9745;SDS011;4912;50.836;12.958;2022-12-10T13:04:02;35.17;;;17.50;;
9745;SDS011;4912;50.836;12.958;2022-12-10T13:06:37;31.77;;;17.47;;
9745;SDS011;4912;50.836;12.958;2022-12-10T13:09:24;34.63;;;17.87;;
9745;SDS011;4912;50.836;12.958;2022-12-10T13:15:02;31.88;;;17.35;;
9745;SDS011;4912;50.836;12.958;2022-12-10T13:21:15;30.47;;;16.73;;
9745;SDS011;4912;50.836;12.958;2022-12-10T13:24:12;28.07;;;15.33;;
9745;SDS011;4912;50.836;12.958;2022-12-10T13:29:45;27.00;;;15.40;;
9745;SDS011;4912;50.836;12.958;2022-12-10T13:32:24;26.87;;;15.13;;
9745;SDS011;4912;50.836;12.958;2022-12-10T13:35:28;27.43;;;15.30;;
9745;SDS011;4912;50.836;12.958;2022-12-10T13:38:04;21.37;;;12.77;;
9745;SDS011;4912;50.836;12.958;2022-12-10T13:40:58;24.53;;;14.17;;
9745;SDS011;4912;50.836;12.958;2022-12-10T13:43:51;24.83;;;14.13;;
9745;SDS011;4912;50.836;12.958;2022-12-10T13:46:51;24.90;;;13.60;;
9745;SDS011;4912;50.836;12.958;2022-12-10T13:49:28;21.57;;;12.83;;
9745;SDS011;4912;50.836;12.958;2022-12-10T13:52:00;22.83;;;12.57;;
9745;SDS011;4912;50.836;12.958;2022-12-10T13:57:56;24.33;;;13.47;;
9745;SDS011;4912;50.836;12.958;2022-12-10T14:00:58;23.77;;;13.70;;
9745;SDS011;4912;50.836;12.958;2022-12-10T14:03:48;22.27;;;12.23;;
9745;SDS011;4912;50.836;12.958;2022-12-10T14:06:34;23.53;;;12.97;;
9745;SDS011;4912;50.836;12.958;2022-12-10T14:09:06;25.47;;;13.97;;
9745;SDS011;4912;50.836;12.958;2022-12-10T14:11:47;24.83;;;13.52;;
9745;SDS011;4912;50.836;12.958;2022-12-10T14:14:26;27.60;;;15.37;;
9745;SDS011;4912;50.836;12.958;2022-12-10T14:17:01;28.13;;;15.03;;
9745;SDS011;4912;50.836;12.958;2022-12-10T14:19:34;26.80;;;14.30;;
9745;SDS011;4912;50.836;12.958;2022-12-10T14:22:05;23.92;;;13.57;;
9745;SDS011;4912;50.836;12.958;2022-12-10T14:24:37;23.67;;;13.40;;
9745;SDS011;4912;50.836;12.958;2022-12-10T14:27:11;22.53;;;13.23;;
9745;SDS011;4912;50.836;12.958;2022-12-10T14:29:47;24.30;;;13.57;;
9745;SDS011;4912;50.836;12.958;2022-12-10T14:32:24;25.37;;;13.50;;
9745;SDS011;4912;50.836;12.958;2022-12-10T14:35:00;23.77;;;13.27;;
9745;SDS011;4912;50.836;12.958;2022-12-10T14:37:51;41.77;;;22.10;;
9745;SDS011;4912;50.836;12.958;2022-12-10T14:40:24;24.93;;;13.90;;
9745;SDS011;4912;50.836;12.958;2022-12-10T14:43:02;23.93;;;13.53;;
9745;SDS011;4912;50.836;12.958;2022-12-10T14:45:47;25.50;;;13.93;;
9745;SDS011;4912;50.836;12.958;2022-12-10T14:48:22;28.50;;;14.40;;
9745;SDS011;4912;50.836;12.958;2022-12-10T14:50:55;28.13;;;15.33;;
9745;SDS011;4912;50.836;12.958;2022-12-10T14:53:26;30.37;;;16.17;;
9745;SDS011;4912;50.836;12.958;2022-12-10T14:55:59;30.13;;;15.80;;
9745;SDS011;4912;50.836;12.958;2022-12-10T14:58:35;31.13;;;16.47;;
9745;SDS011;4912;50.836;12.958;2022-12-10T15:01:12;31.80;;;17.10;;
9745;SDS011;4912;50.836;12.958;2022-12-10T15:03:51;33.70;;;18.10;;
9745;SDS011;4912;50.836;12.958;2022-12-10T15:06:23;30.83;;;15.87;;
9745;SDS011;4912;50.836;12.958;2022-12-10T15:08:54;30.00;;;16.00;;
9745;SDS011;4912;50.836;12.958;2022-12-10T15:11:26;30.40;;;16.10;;
9745;SDS011;4912;50.836;12.958;2022-12-10T15:13:58;31.97;;;15.53;;
9745;SDS011;4912;50.836;12.958;2022-12-10T15:16:38;32.23;;;16.00;;
9745;SDS011;4912;50.836;12.958;2022-12-10T15:19:16;30.55;;;16.10;;
9745;SDS011;4912;50.836;12.958;2022-12-10T15:21:50;31.27;;;16.10;;
9745;SDS011;4912;50.836;12.958;2022-12-10T15:24:28;31.47;;;15.83;;
9745;SDS011;4912;50.836;12.958;2022-12-10T15:27:14;28.60;;;14.97;;
9745;SDS011;4912;50.836;12.958;2022-12-10T15:29:46;29.07;;;14.77;;
9745;SDS011;4912;50.836;12.958;2022-12-10T15:32:22;24.90;;;13.60;;
9745;SDS011;4912;50.836;12.958;2022-12-10T15:34:56;22.63;;;12.50;;
9745;SDS011;4912;50.836;12.958;2022-12-10T15:37:31;27.40;;;13.80;;
9745;SDS011;4912;50.836;12.958;2022-12-10T15:40:05;25.43;;;13.20;;
9745;SDS011;4912;50.836;12.958;2022-12-10T15:42:50;23.27;;;12.97;;
9745;SDS011;4912;50.836;12.958;2022-12-10T15:45:22;18.67;;;11.43;;
9745;SDS011;4912;50.836;12.958;2022-12-10T15:47:58;20.13;;;11.07;;
9745;SDS011;4912;50.836;12.958;2022-12-10T15:50:36;21.73;;;12.37;;
9745;SDS011;4912;50.836;12.958;2022-12-10T15:53:08;20.60;;;11.63;;
9745;SDS011;4912;50.836;12.958;2022-12-10T15:55:40;21.67;;;12.77;;
9745;SDS011;4912;50.836;12.958;2022-12-10T15:58:10;18.63;;;11.47;;
9745;SDS011;4912;50.836;12.958;2022-12-10T16:00:42;19.90;;;11.33;;
9745;SDS011;4912;50.836;12.958;2022-12-10T16:03:16;20.63;;;12.20;;